createdAt,value
2018-08-12T00:00:18.165Z,13.90
2018-08-12T00:02:46.665Z,13.90
2018-08-12T00:05:15.183Z,13.90
2018-08-12T00:07:44.045Z,13.90
2018-08-12T00:10:12.996Z,14.00
2018-08-12T00:12:42.134Z,13.90
2018-08-12T00:15:12.936Z,14.00
2018-08-12T00:17:41.681Z,13.90
2018-08-12T00:20:14.996Z,13.90
2018-08-12T00:22:43.475Z,13.90
2018-08-12T00:25:14.322Z,13.90
2018-08-12T00:27:42.813Z,13.90
2018-08-12T00:30:12.741Z,13.90
2018-08-12T00:32:41.302Z,13.90
2018-08-12T00:35:12.111Z,14.00
2018-08-12T00:37:41.373Z,14.00
2018-08-12T00:40:11.533Z,14.10
2018-08-12T00:42:40.119Z,14.10
2018-08-12T00:45:11.190Z,14.20
2018-08-12T00:47:39.751Z,14.20
2018-08-12T00:50:09.633Z,14.20
2018-08-12T00:52:38.253Z,14.30
2018-08-12T00:55:08.856Z,14.30
2018-08-12T00:57:37.453Z,14.30
2018-08-12T01:00:11.873Z,14.30
2018-08-12T01:02:40.538Z,14.30
2018-08-12T01:05:13.033Z,14.30
2018-08-12T01:07:41.960Z,14.40
2018-08-12T01:10:12.043Z,14.40
2018-08-12T01:12:40.594Z,14.40
2018-08-12T01:15:12.589Z,14.50
2018-08-12T01:17:41.176Z,14.50
2018-08-12T01:20:11.457Z,14.50
2018-08-12T01:22:40.672Z,14.50
2018-08-12T01:25:11.106Z,14.50
2018-08-12T01:27:39.701Z,14.50
2018-08-12T01:30:13.826Z,14.60
2018-08-12T01:32:42.904Z,14.60
2018-08-12T01:35:12.311Z,14.60
2018-08-12T01:37:41.573Z,14.60
2018-08-12T01:40:12.950Z,14.70
2018-08-12T01:42:42.086Z,14.70
2018-08-12T01:45:12.600Z,14.70
2018-08-12T01:47:41.417Z,14.70
2018-08-12T01:50:11.695Z,14.70
2018-08-12T01:52:40.731Z,14.70
2018-08-12T01:55:10.390Z,14.80
2018-08-12T01:57:38.921Z,14.80
2018-08-12T02:00:09.268Z,14.80
2018-08-12T02:02:37.831Z,14.80
2018-08-12T02:05:07.382Z,14.80
2018-08-12T02:07:35.856Z,14.80
2018-08-12T02:10:05.715Z,14.80
2018-08-12T02:12:34.253Z,14.80
2018-08-12T02:15:02.747Z,14.90
2018-08-12T02:17:31.305Z,14.90
2018-08-12T02:19:59.829Z,14.90
2018-08-12T02:22:28.420Z,14.90
2018-08-12T02:24:56.995Z,14.90
2018-08-12T02:27:25.598Z,14.90
2018-08-12T02:29:54.253Z,15.00
2018-08-12T02:32:23.059Z,15.00
2018-08-12T02:34:52.602Z,15.00
2018-08-12T02:37:21.495Z,15.00
2018-08-12T02:39:50.363Z,15.00
2018-08-12T02:42:18.923Z,15.00
2018-08-12T02:44:47.555Z,15.00
2018-08-12T02:47:16.046Z,15.00
2018-08-12T02:49:44.600Z,15.00
2018-08-12T02:52:13.175Z,15.00
2018-08-12T02:54:41.662Z,15.10
2018-08-12T02:57:10.298Z,15.10
2018-08-12T02:59:38.984Z,15.10
2018-08-12T03:02:07.623Z,15.10
2018-08-12T03:04:37.129Z,15.10
2018-08-12T03:07:07.453Z,15.10
2018-08-12T03:09:36.254Z,15.00
2018-08-12T03:12:04.776Z,15.10
2018-08-12T03:14:33.210Z,15.10
2018-08-12T03:17:01.717Z,15.10
2018-08-12T03:19:30.510Z,15.00
2018-08-12T03:21:59.231Z,15.10
2018-08-12T03:24:27.783Z,15.10
2018-08-12T03:26:56.333Z,15.10
2018-08-12T03:29:24.763Z,15.10
2018-08-12T03:31:53.208Z,15.10
2018-08-12T03:34:21.717Z,15.10
2018-08-12T03:36:50.426Z,15.10
2018-08-12T03:39:19.970Z,15.10
2018-08-12T03:41:48.553Z,15.00
2018-08-12T03:44:17.157Z,15.00
2018-08-12T03:46:45.881Z,14.90
2018-08-12T03:49:14.509Z,14.90
2018-08-12T03:51:43.033Z,14.80
2018-08-12T03:54:11.678Z,14.80
2018-08-12T03:56:40.269Z,14.80
2018-08-12T03:59:08.748Z,14.70
2018-08-12T04:01:37.301Z,14.70
2018-08-12T04:04:05.964Z,14.80
2018-08-12T04:06:34.773Z,14.80
2018-08-12T04:09:03.547Z,14.80
2018-08-12T04:11:32.199Z,14.80
2018-08-12T04:14:01.025Z,14.80
2018-08-12T04:16:29.774Z,14.80
2018-08-12T04:18:58.478Z,14.70
2018-08-12T04:21:26.989Z,14.80
2018-08-12T04:23:55.707Z,14.80
2018-08-12T04:26:24.247Z,14.80
2018-08-12T04:28:52.860Z,14.80
2018-08-12T04:31:21.483Z,14.80
2018-08-12T04:33:50.019Z,14.90
2018-08-12T04:36:18.516Z,14.90
2018-08-12T04:38:47.058Z,14.90
2018-08-12T04:41:15.568Z,14.90
2018-08-12T04:43:44.089Z,14.90
2018-08-12T04:46:12.734Z,14.90
2018-08-12T04:48:41.965Z,14.90
2018-08-12T04:51:10.517Z,14.90
2018-08-12T04:53:39.037Z,15.00
2018-08-12T04:56:07.684Z,15.00
2018-08-12T04:58:36.343Z,15.00
2018-08-12T05:01:04.884Z,15.00
2018-08-12T05:03:33.443Z,15.00
2018-08-12T05:06:02.054Z,15.00
2018-08-12T05:08:31.301Z,15.00
2018-08-12T05:11:00.399Z,15.10
2018-08-12T05:13:29.180Z,15.10
2018-08-12T05:15:57.772Z,15.10
2018-08-12T05:18:26.292Z,15.10
2018-08-12T05:20:54.840Z,15.10
2018-08-12T05:23:23.370Z,15.10
2018-08-12T05:25:51.995Z,15.20
2018-08-12T05:28:20.581Z,15.20
2018-08-12T05:30:49.235Z,15.20
2018-08-12T05:33:17.800Z,15.30
2018-08-12T05:35:46.401Z,15.30
2018-08-12T05:38:15.011Z,15.40
2018-08-12T05:40:43.798Z,15.40
2018-08-12T05:43:12.374Z,15.40
2018-08-12T05:45:41.028Z,15.40
2018-08-12T05:48:16.581Z,15.50
2018-08-12T05:50:47.443Z,15.50
2018-08-12T05:53:16.258Z,15.50
2018-08-12T05:55:45.209Z,15.60
2018-08-12T05:58:14.784Z,15.60
2018-08-12T06:00:43.646Z,15.60
2018-08-12T06:03:12.404Z,15.70
2018-08-12T06:05:42.274Z,15.70
2018-08-12T06:08:11.821Z,15.70
2018-08-12T06:10:40.372Z,15.80
2018-08-12T06:13:11.161Z,15.80
2018-08-12T06:15:39.833Z,15.80
2018-08-12T06:18:08.577Z,15.80
2018-08-12T06:20:37.201Z,15.90
2018-08-12T06:23:05.862Z,15.90
2018-08-12T06:25:34.477Z,16.00
2018-08-12T06:28:03.228Z,16.00
2018-08-12T06:30:31.762Z,16.10
2018-08-12T06:33:00.418Z,16.10
2018-08-12T06:35:29.072Z,16.20
2018-08-12T06:37:57.723Z,16.20
2018-08-12T06:40:26.943Z,16.20
2018-08-12T06:42:56.180Z,16.20
2018-08-12T06:45:24.695Z,16.30
2018-08-12T06:47:53.285Z,16.30
2018-08-12T06:50:21.979Z,16.40
2018-08-12T06:52:50.614Z,16.50
2018-08-12T06:55:19.856Z,16.60
2018-08-12T06:57:49.259Z,16.80
2018-08-12T07:00:21.671Z,16.90
2018-08-12T07:02:51.305Z,17.00
2018-08-12T07:05:19.898Z,17.00
2018-08-12T07:07:48.474Z,17.00
2018-08-12T07:10:17.056Z,17.00
2018-08-12T07:12:45.707Z,17.10
2018-08-12T07:15:15.787Z,17.10
2018-08-12T07:17:45.162Z,17.10
2018-08-12T07:20:14.269Z,17.10
2018-08-12T07:22:43.115Z,17.10
2018-08-12T07:25:12.872Z,17.20
2018-08-12T07:27:42.307Z,17.20
2018-08-12T07:30:13.128Z,17.20
2018-08-12T07:32:41.706Z,17.30
2018-08-12T07:35:10.827Z,17.40
2018-08-12T07:37:39.612Z,17.40
2018-08-12T07:40:12.831Z,17.50
2018-08-12T07:42:41.337Z,17.60
2018-08-12T07:45:11.566Z,17.70
2018-08-12T07:47:40.318Z,17.80
2018-08-12T07:50:09.774Z,17.90
2018-08-12T07:52:39.546Z,18.00
2018-08-12T07:55:12.188Z,18.20
2018-08-12T07:57:41.396Z,18.30
2018-08-12T08:00:12.106Z,18.50
2018-08-12T08:02:40.752Z,18.60
2018-08-12T08:05:09.338Z,18.80
2018-08-12T08:07:38.443Z,19.00
2018-08-12T08:10:09.065Z,19.00
2018-08-12T08:12:38.632Z,19.20
2018-08-12T08:15:09.324Z,19.30
2018-08-12T08:17:39.044Z,19.40
2018-08-12T08:20:12.459Z,19.50
2018-08-12T08:22:42.070Z,19.60
2018-08-12T08:26:14.901Z,19.60
2018-08-12T08:28:43.669Z,19.80
2018-08-12T08:31:13.530Z,20.10
2018-08-12T08:33:42.393Z,20.30
2018-08-12T08:36:11.049Z,20.40
2018-08-12T08:38:39.774Z,20.40
2018-08-12T08:41:15.945Z,20.50
2018-08-12T08:43:46.845Z,20.60
2018-08-12T08:46:15.396Z,20.70
2018-08-12T08:48:44.829Z,20.80
2018-08-12T08:51:17.189Z,20.70
2018-08-12T08:54:03.000Z,20.70
2018-08-12T08:56:32.959Z,20.70
2018-08-12T08:59:05.345Z,20.70
2018-08-12T09:01:41.787Z,21.10
2018-08-12T09:04:20.280Z,21.30
2018-08-12T09:06:50.105Z,21.30
2018-08-12T09:09:20.248Z,21.20
2018-08-12T09:11:56.924Z,21.10
2018-08-12T09:14:28.221Z,21.10
2018-08-12T09:16:58.448Z,21.20
2018-08-12T09:19:27.656Z,21.20
2018-08-12T09:22:00.215Z,21.20
2018-08-12T09:24:29.663Z,21.30
2018-08-12T09:27:30.878Z,21.20
2018-08-12T09:30:00.780Z,21.30
2018-08-12T09:32:30.108Z,21.40
2018-08-12T09:35:01.489Z,21.50
2018-08-12T09:37:33.540Z,21.60
2018-08-12T09:40:04.670Z,21.70
2018-08-12T09:42:42.342Z,21.90
2018-08-12T09:45:13.591Z,22.00
2018-08-12T09:47:43.002Z,22.00
2018-08-12T09:50:13.708Z,22.10
2018-08-12T09:52:46.095Z,22.20
2018-08-12T09:55:18.580Z,22.40
2018-08-12T09:57:47.633Z,22.40
2018-08-12T10:00:23.050Z,22.30
2018-08-12T10:02:53.194Z,22.40
2018-08-12T10:05:21.748Z,22.30
2018-08-12T10:07:50.209Z,22.30
2018-08-12T10:10:18.885Z,22.40
2018-08-12T10:12:47.896Z,22.40
2018-08-12T10:15:16.981Z,22.40
2018-08-12T10:17:48.594Z,22.30
2018-08-12T10:20:17.756Z,22.30
2018-08-12T10:22:46.253Z,22.40
2018-08-12T10:25:14.767Z,22.40
2018-08-12T10:27:43.322Z,22.50
2018-08-12T10:30:14.277Z,22.60
2018-08-12T10:32:42.977Z,22.80
2018-08-12T10:35:12.923Z,22.80
2018-08-12T10:37:42.066Z,22.80
2018-08-12T10:40:19.134Z,22.80
2018-08-12T10:42:48.596Z,23.00
2018-08-12T10:45:17.285Z,23.20
2018-08-12T10:47:46.135Z,23.20
2018-08-12T10:50:16.635Z,23.30
2018-08-12T10:52:46.072Z,23.50
2018-08-12T10:55:16.041Z,23.60
2018-08-12T10:57:45.149Z,24.00
2018-08-12T11:00:16.292Z,24.20
2018-08-12T11:02:45.331Z,24.30
2018-08-12T11:05:14.791Z,24.10
2018-08-12T11:07:43.885Z,24.20
2018-08-12T11:10:12.916Z,24.30
2018-08-12T11:12:41.806Z,24.70
2018-08-12T11:15:10.666Z,25.00
2018-08-12T11:17:39.894Z,25.10
2018-08-12T11:20:09.226Z,25.10
2018-08-12T11:22:37.731Z,24.90
2018-08-12T11:25:07.517Z,24.80
2018-08-12T11:27:36.653Z,24.70
2018-08-12T11:30:09.745Z,24.70
2018-08-12T11:32:38.360Z,24.80
2018-08-12T11:35:08.605Z,24.80
2018-08-12T11:37:37.849Z,24.80
2018-08-12T11:40:09.137Z,24.90
2018-08-12T11:42:38.025Z,24.80
2018-08-12T11:45:09.905Z,24.80
2018-08-12T11:47:54.694Z,25.00
2018-08-12T11:50:23.911Z,25.30
2018-08-12T11:52:54.679Z,25.40
2018-08-12T11:55:24.411Z,25.30
2018-08-12T11:57:54.659Z,25.60
2018-08-12T12:00:23.708Z,25.40
2018-08-12T12:05:56.882Z,25.10
2018-08-12T12:08:28.666Z,25.00
2018-08-12T12:10:58.684Z,25.10
2018-08-12T12:13:28.826Z,25.00
2018-08-12T12:15:58.948Z,25.00
2018-08-12T12:18:29.558Z,25.00
2018-08-12T12:20:58.684Z,25.20
2018-08-12T12:23:28.492Z,25.50
2018-08-12T12:26:01.542Z,25.70
2018-08-12T12:28:31.877Z,25.50
2018-08-12T12:31:02.139Z,25.80
2018-08-12T12:33:31.412Z,25.70
2018-08-12T12:36:07.938Z,25.60
2018-08-12T12:38:38.947Z,25.80
2018-08-12T12:41:09.338Z,26.00
2018-08-12T12:43:38.310Z,26.20
2018-08-12T12:46:10.660Z,26.20
2018-08-12T12:48:41.788Z,26.20
2018-08-12T12:51:12.087Z,26.50
2018-08-12T12:53:44.563Z,26.60
2018-08-12T12:56:16.130Z,26.80
2018-08-12T13:02:08.834Z,26.60
2018-08-12T13:18:41.910Z,26.60
2018-08-12T13:55:50.235Z,26.40
2018-08-12T14:07:30.556Z,26.60
2018-08-12T14:13:25.943Z,25.80
2018-08-12T14:16:27.351Z,25.80
2018-08-12T14:34:57.851Z,26.50
2018-08-12T15:34:37.296Z,26.00
2018-08-12T15:37:21.762Z,24.80
2018-08-12T15:40:22.516Z,24.80
2018-08-12T15:42:53.302Z,24.80
2018-08-12T15:46:04.668Z,24.70
2018-08-12T15:48:35.054Z,24.50
2018-08-12T15:51:23.470Z,24.50
2018-08-12T15:54:03.675Z,24.50
2018-08-12T15:56:37.073Z,24.40
2018-08-12T15:59:26.396Z,24.20
2018-08-12T16:01:56.243Z,24.30
2018-08-12T16:31:51.539Z,24.30
2018-08-12T16:34:20.662Z,24.10
2018-08-12T16:36:50.474Z,24.00
2018-08-12T16:39:19.116Z,24.00
2018-08-12T16:41:47.838Z,23.80
2018-08-12T16:47:54.557Z,23.70
2018-08-12T16:50:26.097Z,23.60
2018-08-12T16:53:09.975Z,23.70
2018-08-12T17:12:59.254Z,23.60
2018-08-12T17:15:28.221Z,23.50
2018-08-12T17:17:57.542Z,23.50
2018-08-12T17:20:27.103Z,23.50
2018-08-12T17:23:27.379Z,23.50
2018-08-12T17:25:57.959Z,23.50
2018-08-12T17:28:35.115Z,23.50
2018-08-12T17:31:06.263Z,23.40
2018-08-12T17:33:35.585Z,23.40
2018-08-12T17:36:07.729Z,23.30
2018-08-12T17:38:38.347Z,23.20
2018-08-12T17:41:09.163Z,23.20
2018-08-12T17:43:39.169Z,23.20
2018-08-12T17:46:11.062Z,23.10
2018-08-12T17:48:41.598Z,23.00
2018-08-12T17:51:12.234Z,23.00
2018-08-12T17:53:55.498Z,23.00
2018-08-12T17:56:25.138Z,22.90
2018-08-12T17:58:56.994Z,22.80
2018-08-12T18:01:27.563Z,22.80
2018-08-12T18:03:56.242Z,22.70
2018-08-12T18:06:25.154Z,22.60
2018-08-12T18:08:53.913Z,22.60
2018-08-12T18:11:23.784Z,22.60
2018-08-12T18:13:52.540Z,22.60
2018-08-12T18:16:21.866Z,22.60
2018-08-12T18:18:51.500Z,22.50
2018-08-12T18:21:21.081Z,22.50
2018-08-12T18:23:51.128Z,22.40
2018-08-12T18:26:20.459Z,22.40
2018-08-12T18:28:51.446Z,22.30
2018-08-12T18:31:20.744Z,22.30
2018-08-12T18:33:53.037Z,22.20
2018-08-12T18:36:22.389Z,22.30
2018-08-12T18:38:53.979Z,22.30
2018-08-12T18:41:32.788Z,22.40
2018-08-12T18:44:03.797Z,22.40
2018-08-12T18:46:35.364Z,22.30
2018-08-12T18:49:04.911Z,22.10
2018-08-12T18:51:34.200Z,22.00
2018-08-12T18:54:03.854Z,22.00
2018-08-12T18:56:35.365Z,22.00
2018-08-12T18:59:04.565Z,21.80
2018-08-12T19:01:34.268Z,21.70
2018-08-12T19:04:04.187Z,21.60
2018-08-12T19:06:34.743Z,21.50
2018-08-12T19:09:04.737Z,21.50
2018-08-12T19:11:36.145Z,21.50
2018-08-12T19:14:06.205Z,21.30
2018-08-12T19:16:35.423Z,21.30
2018-08-12T19:19:05.323Z,21.30
2018-08-12T19:21:34.765Z,21.30
2018-08-12T19:24:05.208Z,21.30
2018-08-12T19:26:38.190Z,21.30
2018-08-12T19:29:09.468Z,21.20
2018-08-12T19:31:38.949Z,21.00
2018-08-12T19:34:08.350Z,20.90
2018-08-12T19:36:37.086Z,20.80
2018-08-12T19:39:09.457Z,20.80
2018-08-12T19:41:38.353Z,20.70
2018-08-12T19:44:07.444Z,20.80
2018-08-12T19:46:36.940Z,20.70
2018-08-12T19:49:05.845Z,20.60
2018-08-12T19:51:34.369Z,20.60
2018-08-12T19:54:02.993Z,20.60
2018-08-12T19:56:32.167Z,20.60
2018-08-12T19:59:00.651Z,20.60
2018-08-12T20:01:29.603Z,20.50
2018-08-12T20:03:58.187Z,20.40
2018-08-12T20:06:26.990Z,20.40
2018-08-12T20:08:56.158Z,20.30
2018-08-12T20:11:25.290Z,20.30
2018-08-12T20:13:53.826Z,20.30
2018-08-12T20:16:22.835Z,20.20
2018-08-12T20:18:51.718Z,20.10
2018-08-12T20:21:21.193Z,20.10
2018-08-12T20:23:50.579Z,20.00
2018-08-12T20:26:19.168Z,19.90
2018-08-12T20:28:47.636Z,19.90
2018-08-12T20:31:21.453Z,19.80
2018-08-12T20:33:50.343Z,19.70
2018-08-12T20:36:18.915Z,19.70
2018-08-12T20:38:47.545Z,19.80
2018-08-12T20:41:16.192Z,19.80
2018-08-12T20:43:44.866Z,19.80
2018-08-12T20:46:13.958Z,19.60
2018-08-12T20:48:42.775Z,19.60
2018-08-12T20:51:11.374Z,19.50
2018-08-12T20:53:40.135Z,19.40
2018-08-12T20:56:08.932Z,19.40
2018-08-12T20:58:38.943Z,19.40
2018-08-12T21:01:08.741Z,19.40
2018-08-12T21:03:37.257Z,19.40
2018-08-12T21:06:05.944Z,19.30
2018-08-12T21:08:34.490Z,19.30
2018-08-12T21:11:03.198Z,19.30
2018-08-12T21:13:31.776Z,19.30
2018-08-12T21:16:00.360Z,19.30
2018-08-12T21:18:29.814Z,19.30
2018-08-12T21:20:58.638Z,19.40
2018-08-12T21:23:28.457Z,19.50
2018-08-12T21:25:57.192Z,19.50
2018-08-12T21:28:26.353Z,19.50
2018-08-12T21:30:55.293Z,19.50
2018-08-12T21:33:23.845Z,19.50
2018-08-12T21:35:52.455Z,19.40
2018-08-12T21:38:21.385Z,19.30
2018-08-12T21:40:51.248Z,19.30
2018-08-12T21:43:19.974Z,19.30
2018-08-12T21:45:48.655Z,19.20
2018-08-12T21:48:17.469Z,19.20
2018-08-12T21:50:47.056Z,19.20
2018-08-12T21:53:15.697Z,19.20
2018-08-12T21:55:44.205Z,19.30
2018-08-12T21:58:12.838Z,19.50
2018-08-12T22:00:41.504Z,19.50
2018-08-12T22:03:10.176Z,19.40
2018-08-12T22:05:38.888Z,19.40
2018-08-12T22:08:09.043Z,19.40
2018-08-12T22:10:39.783Z,19.40
2018-08-12T22:13:09.188Z,19.40
2018-08-12T22:15:37.823Z,19.30
2018-08-12T22:18:07.670Z,19.40
2018-08-12T22:20:36.265Z,19.50
2018-08-12T22:23:04.875Z,19.50
2018-08-12T22:25:33.545Z,19.50
2018-08-12T22:28:02.341Z,19.50
2018-08-12T22:30:31.652Z,19.50
2018-08-12T22:33:00.512Z,19.50
2018-08-12T22:35:29.131Z,19.40
2018-08-12T22:37:58.376Z,19.40
2018-08-12T22:40:27.014Z,19.30
2018-08-12T22:42:55.737Z,19.30
2018-08-12T22:45:24.396Z,19.30
2018-08-12T22:47:53.045Z,19.30
2018-08-12T22:50:21.716Z,19.30
2018-08-12T22:52:51.178Z,19.30
2018-08-12T22:55:19.849Z,19.30
2018-08-12T22:57:48.570Z,19.20
2018-08-12T23:00:19.092Z,19.30
2018-08-12T23:02:48.018Z,19.30
2018-08-12T23:05:16.648Z,19.20
2018-08-12T23:07:45.318Z,19.20
2018-08-12T23:10:13.941Z,19.20
2018-08-12T23:12:42.577Z,19.20
2018-08-12T23:15:22.435Z,19.10
2018-08-12T23:17:51.100Z,19.20
2018-08-12T23:20:19.762Z,19.30
2018-08-12T23:22:48.322Z,19.40
2018-08-12T23:25:18.990Z,19.40
2018-08-12T23:27:47.593Z,19.30
2018-08-12T23:30:16.252Z,19.30
2018-08-12T23:32:45.048Z,19.30
2018-08-12T23:35:14.301Z,19.20
2018-08-12T23:37:43.111Z,19.50
2018-08-12T23:40:11.765Z,19.60
2018-08-12T23:42:40.468Z,19.60
2018-08-12T23:45:09.145Z,19.50
2018-08-12T23:47:37.772Z,19.40
2018-08-12T23:50:06.388Z,19.40
2018-08-12T23:52:35.096Z,19.40
2018-08-12T23:55:03.756Z,19.50
2018-08-12T23:57:33.290Z,19.50
